sensor_id;sensor_type;location;lat;lon;timestamp;P1;durP1;ratioP1;P2;durP2;ratioP2
45734;SDS011;31446;49.632;8.328;2023-02-13T00:12:19;39.60;;;18.80;;
45734;SDS011;31446;49.632;8.328;2023-02-13T00:27:25;37.03;;;16.65;;
45734;SDS011;31446;49.632;8.328;2023-02-13T00:42:31;39.38;;;17.88;;
45734;SDS011;31446;49.632;8.328;2023-02-13T00:57:37;40.17;;;17.40;;
45734;SDS011;31446;49.632;8.328;2023-02-13T01:12:43;37.45;;;17.60;;
45734;SDS011;31446;49.632;8.328;2023-02-13T01:27:49;38.92;;;17.77;;
45734;SDS011;31446;49.632;8.328;2023-02-13T01:42:55;35.95;;;16.92;;
45734;SDS011;31446;49.632;8.328;2023-02-13T01:58:03;33.42;;;16.52;;
45734;SDS011;31446;49.632;8.328;2023-02-13T02:13:13;38.85;;;17.20;;
45734;SDS011;31446;49.632;8.328;2023-02-13T02:28:31;38.42;;;17.20;;
45734;SDS011;31446;49.632;8.328;2023-02-13T02:43:59;37.90;;;18.35;;
45734;SDS011;31446;49.632;8.328;2023-02-13T02:59:13;35.85;;;17.77;;
45734;SDS011;31446;49.632;8.328;2023-02-13T03:14:34;35.58;;;17.48;;
45734;SDS011;31446;49.632;8.328;2023-02-13T03:29:44;42.25;;;18.10;;
45734;SDS011;31446;49.632;8.328;2023-02-13T03:45:14;41.40;;;18.33;;
45734;SDS011;31446;49.632;8.328;2023-02-13T04:00:38;47.13;;;19.47;;
45734;SDS011;31446;49.632;8.328;2023-02-13T04:15:49;46.33;;;20.15;;
45734;SDS011;31446;49.632;8.328;2023-02-13T04:30:57;43.40;;;19.08;;
45734;SDS011;31446;49.632;8.328;2023-02-13T04:46:04;41.88;;;19.17;;
45734;SDS011;31446;49.632;8.328;2023-02-13T05:01:13;58.42;;;22.05;;
45734;SDS011;31446;49.632;8.328;2023-02-13T05:16:20;43.28;;;20.67;;
45734;SDS011;31446;49.632;8.328;2023-02-13T05:31:26;50.88;;;19.98;;
45734;SDS011;31446;49.632;8.328;2023-02-13T05:46:32;51.85;;;20.05;;
45734;SDS011;31446;49.632;8.328;2023-02-13T06:01:39;49.95;;;21.50;;
45734;SDS011;31446;49.632;8.328;2023-02-13T06:16:45;63.28;;;23.80;;
45734;SDS011;31446;49.632;8.328;2023-02-13T06:31:51;75.15;;;25.75;;
45734;SDS011;31446;49.632;8.328;2023-02-13T06:46:57;61.40;;;22.98;;
45734;SDS011;31446;49.632;8.328;2023-02-13T07:02:03;57.47;;;24.20;;
45734;SDS011;31446;49.632;8.328;2023-02-13T07:17:10;58.85;;;23.55;;
45734;SDS011;31446;49.632;8.328;2023-02-13T07:32:16;53.97;;;24.30;;
45734;SDS011;31446;49.632;8.328;2023-02-13T07:47:22;70.88;;;29.88;;
45734;SDS011;31446;49.632;8.328;2023-02-13T08:02:28;69.90;;;28.48;;
45734;SDS011;31446;49.632;8.328;2023-02-13T08:17:34;66.60;;;29.20;;
45734;SDS011;31446;49.632;8.328;2023-02-13T08:32:40;55.20;;;26.73;;
45734;SDS011;31446;49.632;8.328;2023-02-13T08:47:46;52.28;;;25.35;;
45734;SDS011;31446;49.632;8.328;2023-02-13T09:02:52;47.75;;;22.95;;
45734;SDS011;31446;49.632;8.328;2023-02-13T09:17:58;44.35;;;23.23;;
45734;SDS011;31446;49.632;8.328;2023-02-13T09:33:05;36.90;;;19.27;;
45734;SDS011;31446;49.632;8.328;2023-02-13T09:48:17;37.15;;;17.60;;
45734;SDS011;31446;49.632;8.328;2023-02-13T10:03:37;30.88;;;17.52;;
45734;SDS011;31446;49.632;8.328;2023-02-13T10:18:52;26.57;;;14.93;;
45734;SDS011;31446;49.632;8.328;2023-02-13T10:34:01;21.80;;;12.35;;
45734;SDS011;31446;49.632;8.328;2023-02-13T11:04:38;17.20;;;12.13;;
45734;SDS011;31446;49.632;8.328;2023-02-13T11:19:48;18.08;;;10.85;;
45734;SDS011;31446;49.632;8.328;2023-02-13T11:34:57;19.30;;;10.73;;
45734;SDS011;31446;49.632;8.328;2023-02-13T11:50:24;18.40;;;12.20;;
45734;SDS011;31446;49.632;8.328;2023-02-13T12:05:32;15.15;;;8.75;;
45734;SDS011;31446;49.632;8.328;2023-02-13T12:20:39;20.17;;;9.68;;
45734;SDS011;31446;49.632;8.328;2023-02-13T12:35:54;20.52;;;9.15;;
45734;SDS011;31446;49.632;8.328;2023-02-13T12:51:09;16.20;;;9.40;;
45734;SDS011;31446;49.632;8.328;2023-02-13T13:06:45;15.60;;;9.35;;
45734;SDS011;31446;49.632;8.328;2023-02-13T13:22:06;22.75;;;11.48;;
45734;SDS011;31446;49.632;8.328;2023-02-13T13:37:24;16.47;;;9.23;;
45734;SDS011;31446;49.632;8.328;2023-02-13T13:52:36;14.30;;;8.93;;
45734;SDS011;31446;49.632;8.328;2023-02-13T14:07:42;14.95;;;9.13;;
45734;SDS011;31446;49.632;8.328;2023-02-13T14:22:49;12.10;;;8.32;;
45734;SDS011;31446;49.632;8.328;2023-02-13T14:37:56;14.48;;;9.02;;
45734;SDS011;31446;49.632;8.328;2023-02-13T14:53:06;21.65;;;10.63;;
45734;SDS011;31446;49.632;8.328;2023-02-13T15:08:20;15.10;;;9.57;;
45734;SDS011;31446;49.632;8.328;2023-02-13T15:23:29;19.02;;;10.38;;
45734;SDS011;31446;49.632;8.328;2023-02-13T15:38:37;16.10;;;10.25;;
45734;SDS011;31446;49.632;8.328;2023-02-13T15:53:51;16.85;;;10.30;;
45734;SDS011;31446;49.632;8.328;2023-02-13T16:08:58;20.03;;;11.87;;
45734;SDS011;31446;49.632;8.328;2023-02-13T16:39:26;23.20;;;14.18;;
45734;SDS011;31446;49.632;8.328;2023-02-13T16:54:34;27.23;;;16.70;;
45734;SDS011;31446;49.632;8.328;2023-02-13T17:09:42;30.98;;;18.02;;
45734;SDS011;31446;49.632;8.328;2023-02-13T17:24:48;36.10;;;19.67;;
45734;SDS011;31446;49.632;8.328;2023-02-13T17:39:54;42.97;;;20.15;;
45734;SDS011;31446;49.632;8.328;2023-02-13T17:55:00;40.08;;;23.42;;
45734;SDS011;31446;49.632;8.328;2023-02-13T18:10:08;51.80;;;28.02;;
45734;SDS011;31446;49.632;8.328;2023-02-13T18:25:18;49.30;;;26.52;;
45734;SDS011;31446;49.632;8.328;2023-02-13T18:40:25;51.00;;;25.67;;
45734;SDS011;31446;49.632;8.328;2023-02-13T18:55:31;41.67;;;23.50;;
45734;SDS011;31446;49.632;8.328;2023-02-13T19:10:37;43.47;;;24.25;;
45734;SDS011;31446;49.632;8.328;2023-02-13T19:25:43;45.47;;;22.48;;
45734;SDS011;31446;49.632;8.328;2023-02-13T19:40:49;53.90;;;29.20;;
45734;SDS011;31446;49.632;8.328;2023-02-13T19:55:59;52.88;;;25.13;;
45734;SDS011;31446;49.632;8.328;2023-02-13T20:11:07;53.88;;;26.70;;
45734;SDS011;31446;49.632;8.328;2023-02-13T20:26:14;59.40;;;28.85;;
45734;SDS011;31446;49.632;8.328;2023-02-13T20:41:20;65.25;;;30.88;;
45734;SDS011;31446;49.632;8.328;2023-02-13T20:56:28;72.47;;;33.55;;
45734;SDS011;31446;49.632;8.328;2023-02-13T21:11:35;47.70;;;24.05;;
45734;SDS011;31446;49.632;8.328;2023-02-13T21:26:45;58.15;;;26.83;;
45734;SDS011;31446;49.632;8.328;2023-02-13T21:41:52;54.92;;;26.13;;
45734;SDS011;31446;49.632;8.328;2023-02-13T21:56:58;53.20;;;25.35;;
45734;SDS011;31446;49.632;8.328;2023-02-13T22:12:04;63.80;;;28.08;;
45734;SDS011;31446;49.632;8.328;2023-02-13T22:27:10;58.10;;;24.33;;
45734;SDS011;31446;49.632;8.328;2023-02-13T22:42:17;64.78;;;30.35;;
45734;SDS011;31446;49.632;8.328;2023-02-13T22:57:24;54.17;;;25.52;;
45734;SDS011;31446;49.632;8.328;2023-02-13T23:12:30;51.97;;;24.17;;
45734;SDS011;31446;49.632;8.328;2023-02-13T23:27:42;46.22;;;22.27;;
45734;SDS011;31446;49.632;8.328;2023-02-13T23:42:48;54.83;;;24.45;;
45734;SDS011;31446;49.632;8.328;2023-02-13T23:57:55;46.85;;;22.50;;
